createdAt,value
2022-12-09T00:00:51.655Z,97370.34
2022-12-09T00:02:59.572Z,97370.41
2022-12-09T00:05:05.148Z,97367.03
2022-12-09T00:07:10.328Z,97360.16
2022-12-09T00:09:18.189Z,97358.41
2022-12-09T00:11:24.273Z,97363.63
2022-12-09T00:13:30.002Z,97363.72
2022-12-09T00:15:34.922Z,97362.19
2022-12-09T00:17:40.000Z,97366.50
2022-12-09T00:19:47.395Z,97353.63
2022-12-09T00:21:52.426Z,97371.53
2022-12-09T00:23:59.291Z,97362.16
2022-12-09T00:26:04.212Z,97367.25
2022-12-09T00:28:11.971Z,97361.28
2022-12-09T00:30:17.219Z,97359.63
2022-12-09T00:32:22.171Z,97367.41
2022-12-09T00:34:27.166Z,97358.91
2022-12-09T00:36:35.189Z,97359.69
2022-12-09T00:38:40.997Z,97355.47
2022-12-09T00:40:46.420Z,97348.56
2022-12-09T00:42:51.233Z,97346.91
2022-12-09T00:44:56.031Z,97347.81
2022-12-09T00:47:01.769Z,97347.00
2022-12-09T00:49:07.616Z,97347.91
2022-12-09T00:51:16.585Z,97345.41
2022-12-09T00:53:24.459Z,97347.16
2022-12-09T00:55:29.651Z,97346.38
2022-12-09T00:57:34.250Z,97351.53
2022-12-09T00:59:39.532Z,97352.56
2022-12-09T01:01:44.536Z,97350.84
2022-12-09T01:03:49.361Z,97354.31
2022-12-09T01:05:54.549Z,97345.91
2022-12-09T01:07:59.875Z,97354.44
2022-12-09T01:10:08.127Z,97354.41
2022-12-09T01:12:13.108Z,97359.56
2022-12-09T01:14:17.944Z,97353.66
2022-12-09T01:16:26.658Z,97351.94
2022-12-09T01:18:31.546Z,97352.84
2022-12-09T01:20:37.333Z,97355.44
2022-12-09T01:22:42.480Z,97351.19
2022-12-09T01:24:47.983Z,97344.38
2022-12-09T01:26:55.845Z,97350.38
2022-12-09T01:29:01.012Z,97341.84
2022-12-09T01:31:10.891Z,97347.81
2022-12-09T01:33:18.650Z,97354.66
2022-12-09T01:35:23.457Z,97346.09
2022-12-09T01:37:28.442Z,97341.84
2022-12-09T01:39:33.855Z,97346.16
2022-12-09T01:41:38.861Z,97340.22
2022-12-09T01:43:47.138Z,97341.84
2022-12-09T01:45:53.056Z,97337.59
2022-12-09T01:48:03.997Z,97338.38
2022-12-09T01:50:10.775Z,97339.19
2022-12-09T01:52:21.970Z,97339.19
2022-12-09T01:54:27.452Z,97328.94
2022-12-09T01:56:33.844Z,97318.72
2022-12-09T01:58:39.950Z,97324.72
2022-12-09T02:00:48.104Z,97315.47
2022-12-09T02:02:55.036Z,97310.50
2022-12-09T02:05:03.515Z,97309.75
2022-12-09T02:07:13.382Z,97310.78
2022-12-09T02:09:19.346Z,97304.97
2022-12-09T02:11:37.034Z,97301.63
2022-12-09T02:13:50.156Z,97299.91
2022-12-09T02:16:04.409Z,97293.94
2022-12-09T02:18:16.969Z,97287.00
2022-12-09T02:20:29.981Z,97289.50
2022-12-09T02:22:40.866Z,97295.88
2022-12-09T02:24:58.051Z,97290.75
2022-12-09T02:27:11.627Z,97295.94
2022-12-09T02:29:32.457Z,97302.84
2022-12-09T02:32:08.146Z,97305.50
2022-12-09T02:34:20.348Z,97302.28
2022-12-09T02:36:36.889Z,97302.28
2022-12-09T02:38:45.081Z,97303.94
2022-12-09T02:40:55.808Z,97299.53
2022-12-09T02:43:06.562Z,97303.75
2022-12-09T02:45:14.703Z,97296.06
2022-12-09T02:47:26.819Z,97306.19
2022-12-09T02:49:37.855Z,97296.09
2022-12-09T02:51:46.372Z,97292.78
2022-12-09T02:53:58.709Z,97290.31
2022-12-09T02:56:05.825Z,97281.00
2022-12-09T02:58:12.075Z,97284.41
2022-12-09T03:00:18.568Z,97280.97
2022-12-09T03:02:29.166Z,97281.78
2022-12-09T03:04:36.842Z,97282.63
2022-12-09T03:06:47.039Z,97283.47
2022-12-09T03:09:00.133Z,97289.47
2022-12-09T03:11:07.130Z,97285.19
2022-12-09T03:13:17.621Z,97274.03
2022-12-09T03:15:27.011Z,97271.47
2022-12-09T03:17:36.236Z,97272.31
2022-12-09T03:19:47.875Z,97273.19
2022-12-09T03:21:59.807Z,97269.75
2022-12-09T03:24:06.395Z,97273.19
2022-12-09T03:26:11.403Z,97273.19
2022-12-09T03:28:22.916Z,97270.56
2022-12-09T03:30:28.654Z,97267.94
2022-12-09T03:32:36.347Z,97261.03
2022-12-09T03:34:52.082Z,97254.97
2022-12-09T03:37:00.066Z,97252.44
2022-12-09T03:39:07.001Z,97254.84
2022-12-09T03:41:28.709Z,97255.53
2022-12-09T03:43:40.006Z,97251.09
2022-12-09T03:45:45.728Z,97249.28
2022-12-09T03:47:50.732Z,97243.97
2022-12-09T03:49:58.710Z,97242.91
2022-12-09T03:52:08.723Z,97241.16
2022-12-09T03:54:20.291Z,97238.69
2022-12-09T03:56:29.990Z,97242.84
2022-12-09T03:58:37.589Z,97249.44
2022-12-09T04:00:42.952Z,97247.50
2022-12-09T04:02:48.378Z,97249.84
2022-12-09T04:04:54.297Z,97242.88
2022-12-09T04:07:01.793Z,97235.91
2022-12-09T04:09:07.593Z,97230.69
2022-12-09T04:11:12.520Z,97238.31
2022-12-09T04:13:17.367Z,97228.22
2022-12-09T04:15:22.161Z,97222.13
2022-12-09T04:17:27.234Z,97218.66
2022-12-09T04:19:32.008Z,97229.78
2022-12-09T04:21:38.116Z,97226.31
2022-12-09T04:23:45.717Z,97228.00
2022-12-09T04:25:52.401Z,97227.13
2022-12-09T04:27:57.343Z,97223.69
2022-12-09T04:30:02.385Z,97205.94
2022-12-09T04:32:08.106Z,97211.31
2022-12-09T04:34:13.419Z,97214.72
2022-12-09T04:36:20.246Z,97222.25
2022-12-09T04:38:25.275Z,97220.59
2022-12-09T04:40:32.740Z,97223.03
2022-12-09T04:42:37.739Z,97216.13
2022-12-09T04:44:42.562Z,97217.78
2022-12-09T04:46:47.917Z,97220.31
2022-12-09T04:48:52.862Z,97217.88
2022-12-09T04:50:57.934Z,97217.88
2022-12-09T04:53:02.575Z,97205.81
2022-12-09T04:55:09.955Z,97207.47
2022-12-09T04:57:17.644Z,97194.69
2022-12-09T04:59:22.578Z,97205.03
2022-12-09T05:01:31.145Z,97211.91
2022-12-09T05:03:37.032Z,97201.06
2022-12-09T05:05:43.427Z,97207.97
2022-12-09T05:07:49.231Z,97209.75
2022-12-09T05:09:54.511Z,97204.56
2022-12-09T05:12:02.920Z,97195.03
2022-12-09T05:14:10.745Z,97202.81
2022-12-09T05:16:20.085Z,97194.38
2022-12-09T05:18:25.043Z,97193.53
2022-12-09T05:20:30.118Z,97185.22
2022-12-09T05:22:35.260Z,97187.22
2022-12-09T05:24:41.234Z,97190.84
2022-12-09T05:26:46.227Z,97194.41
2022-12-09T05:28:51.829Z,97190.19
2022-12-09T05:31:03.875Z,97190.97
2022-12-09T05:33:09.293Z,97193.69
2022-12-09T05:35:14.297Z,97192.13
2022-12-09T05:37:19.398Z,97183.81
2022-12-09T05:39:24.590Z,97184.66
2022-12-09T05:41:29.749Z,97185.66
2022-12-09T05:43:35.160Z,97180.50
2022-12-09T05:45:40.360Z,97185.63
2022-12-09T05:47:47.933Z,97177.88
2022-12-09T05:49:53.384Z,97176.19
2022-12-09T05:51:58.551Z,97174.53
2022-12-09T05:54:04.579Z,97171.16
2022-12-09T05:56:10.016Z,97164.44
2022-12-09T05:58:14.951Z,97163.69
2022-12-09T06:00:20.470Z,97159.38
2022-12-09T06:02:25.499Z,97157.53
2022-12-09T06:04:33.312Z,97165.88
2022-12-09T06:06:38.766Z,97154.78
2022-12-09T06:08:45.211Z,97152.22
2022-12-09T06:10:50.404Z,97159.84
2022-12-09T06:12:57.807Z,97152.13
2022-12-09T06:15:02.845Z,97159.72
2022-12-09T06:17:07.740Z,97153.66
2022-12-09T06:19:14.089Z,97157.03
2022-12-09T06:21:23.534Z,97163.16
2022-12-09T06:23:28.795Z,97152.91
2022-12-09T06:25:33.779Z,97152.91
2022-12-09T06:27:38.998Z,97141.72
2022-12-09T06:29:43.633Z,97135.56
2022-12-09T06:31:48.899Z,97138.78
2022-12-09T06:33:56.308Z,97134.25
2022-12-09T06:36:04.718Z,97134.84
2022-12-09T06:38:12.502Z,97127.06
2022-12-09T06:40:17.491Z,97121.91
2022-12-09T06:42:22.439Z,97127.78
2022-12-09T06:44:28.030Z,97135.41
2022-12-09T06:46:33.102Z,97125.88
2022-12-09T06:48:38.760Z,97125.84
2022-12-09T06:50:43.468Z,97122.56
2022-12-09T06:52:48.426Z,97124.34
2022-12-09T06:54:56.271Z,97123.44
2022-12-09T06:57:01.310Z,97122.59
2022-12-09T06:59:09.337Z,97128.41
2022-12-09T07:01:16.458Z,97127.47
2022-12-09T07:03:21.751Z,97128.22
2022-12-09T07:05:27.756Z,97123.88
2022-12-09T07:07:33.169Z,97117.84
2022-12-09T07:09:38.492Z,97122.97
2022-12-09T07:11:46.329Z,97127.44
2022-12-09T07:13:51.570Z,97125.13
2022-12-09T07:15:58.451Z,97129.53
2022-12-09T07:18:03.697Z,97132.97
2022-12-09T07:20:10.424Z,97140.66
2022-12-09T07:22:16.102Z,97136.34
2022-12-09T07:24:21.445Z,97138.81
2022-12-09T07:26:26.343Z,97132.78
2022-12-09T07:28:33.994Z,97136.97
2022-12-09T07:30:40.353Z,97125.81
2022-12-09T07:32:45.307Z,97138.50
2022-12-09T07:34:51.024Z,97138.47
2022-12-09T07:36:56.060Z,97136.59
2022-12-09T07:39:03.392Z,97134.00
2022-12-09T07:41:10.101Z,97134.06
2022-12-09T07:43:15.029Z,97131.44
2022-12-09T07:45:22.663Z,97145.09
2022-12-09T07:47:28.064Z,97133.81
2022-12-09T07:49:33.385Z,97129.41
2022-12-09T07:51:38.907Z,97135.22
2022-12-09T07:53:43.875Z,97131.66
2022-12-09T07:55:49.017Z,97123.09
2022-12-09T07:57:53.931Z,97122.94
2022-12-09T07:59:59.318Z,97124.69
2022-12-09T08:02:07.031Z,97118.59
2022-12-09T08:04:13.363Z,97122.75
2022-12-09T08:06:21.367Z,97129.34
2022-12-09T08:08:26.611Z,97124.94
2022-12-09T08:10:31.703Z,97120.91
2022-12-09T08:12:36.849Z,97119.09
2022-12-09T08:14:41.676Z,97115.69
2022-12-09T08:16:46.965Z,97114.69
2022-12-09T08:18:56.332Z,97111.06
2022-12-09T08:21:02.136Z,97110.13
2022-12-09T08:23:07.063Z,97106.63
2022-12-09T08:25:13.735Z,97101.44
2022-12-09T08:27:19.209Z,97105.66
2022-12-09T08:29:24.417Z,97100.59
2022-12-09T08:31:32.322Z,97101.63
2022-12-09T08:33:42.386Z,97090.44
2022-12-09T08:35:50.139Z,97087.94
2022-12-09T08:37:55.270Z,97084.50
2022-12-09T08:40:00.210Z,97082.81
2022-12-09T08:42:05.570Z,97083.56
2022-12-09T08:44:11.552Z,97079.28
2022-12-09T08:46:17.893Z,97080.06
2022-12-09T08:48:23.035Z,97076.50
2022-12-09T08:50:28.274Z,97070.59
2022-12-09T08:52:40.498Z,97072.53
2022-12-09T08:54:46.318Z,97073.97
2022-12-09T08:56:52.939Z,97065.31
2022-12-09T08:58:58.867Z,97070.03
2022-12-09T09:01:04.029Z,97075.06
2022-12-09T09:03:09.445Z,97065.41
2022-12-09T09:05:15.600Z,97077.72
2022-12-09T09:07:21.174Z,97074.25
2022-12-09T09:09:29.092Z,97070.03
2022-12-09T09:11:34.536Z,97073.72
2022-12-09T09:13:40.027Z,97079.81
2022-12-09T09:15:45.496Z,97074.41
2022-12-09T09:17:52.287Z,97073.41
2022-12-09T09:19:58.722Z,97076.22
2022-12-09T09:22:04.396Z,97079.72
2022-12-09T09:24:11.371Z,97069.59
2022-12-09T09:26:21.990Z,97067.44
2022-12-09T09:28:31.003Z,97076.13
2022-12-09T09:30:37.026Z,97067.06
2022-12-09T09:32:42.187Z,97068.25
2022-12-09T09:34:50.705Z,97062.13
2022-12-09T09:36:56.560Z,97059.25
2022-12-09T09:39:02.182Z,97054.59
2022-12-09T09:41:19.673Z,97052.72
2022-12-09T09:43:30.664Z,97050.88
2022-12-09T09:45:35.995Z,97039.69
2022-12-09T09:47:44.024Z,97039.69
2022-12-09T09:49:57.918Z,97037.69
2022-12-09T09:52:08.763Z,97036.47
2022-12-09T09:54:16.701Z,97033.75
2022-12-09T09:56:29.277Z,97036.97
2022-12-09T09:58:44.287Z,97032.97
2022-12-09T10:00:58.377Z,97034.94
2022-12-09T10:03:07.328Z,97031.34
2022-12-09T10:05:23.043Z,97028.53
2022-12-09T10:07:39.974Z,97025.94
2022-12-09T10:09:57.785Z,97020.78
2022-12-09T10:12:06.955Z,97023.38
2022-12-09T10:14:20.287Z,97018.16
2022-12-09T10:16:29.691Z,97020.41
2022-12-09T10:18:40.439Z,97011.63
2022-12-09T10:20:46.264Z,97015.84
2022-12-09T10:22:55.022Z,97009.16
2022-12-09T10:25:02.490Z,97009.06
2022-12-09T10:27:17.321Z,97007.38
2022-12-09T10:29:31.758Z,97009.81
2022-12-09T10:31:36.812Z,97006.47
2022-12-09T10:33:42.937Z,97002.13
2022-12-09T10:35:48.879Z,97002.03
2022-12-09T10:37:59.525Z,97004.34
2022-12-09T10:40:22.980Z,97005.16
2022-12-09T10:42:41.819Z,96997.59
2022-12-09T10:44:49.843Z,96996.75
2022-12-09T10:47:01.415Z,96991.00
2022-12-09T10:49:06.678Z,96998.84
2022-12-09T10:51:15.096Z,96994.53
2022-12-09T10:53:20.160Z,96991.78
2022-12-09T10:55:30.570Z,96990.66
2022-12-09T10:57:35.455Z,96979.75
2022-12-09T10:59:42.427Z,96982.25
2022-12-09T11:01:55.739Z,96978.53
2022-12-09T11:04:15.888Z,96976.91
2022-12-09T11:06:27.185Z,96974.28
2022-12-09T11:08:33.217Z,96968.13
2022-12-09T11:10:39.941Z,96963.03
2022-12-09T11:12:45.165Z,96951.50
2022-12-09T11:14:56.260Z,96955.75
2022-12-09T11:17:16.095Z,96950.66
2022-12-09T11:19:30.886Z,96940.53
2022-12-09T11:21:38.753Z,96945.84
2022-12-09T11:24:02.503Z,96945.69
2022-12-09T11:26:10.361Z,96939.19
2022-12-09T11:28:26.931Z,96938.41
2022-12-09T11:30:35.074Z,96919.63
2022-12-09T11:33:03.497Z,96929.22
2022-12-09T11:35:09.467Z,96932.72
2022-12-09T11:37:14.615Z,96930.91
2022-12-09T11:39:22.413Z,96926.47
2022-12-09T11:41:42.577Z,96935.59
2022-12-09T11:43:51.721Z,96937.41
2022-12-09T11:45:56.707Z,96930.44
2022-12-09T11:48:29.824Z,96922.91
2022-12-09T11:50:42.713Z,96927.38
2022-12-09T11:52:48.307Z,96927.16
2022-12-09T11:54:59.430Z,96918.53
2022-12-09T11:57:06.105Z,96906.22
2022-12-09T11:59:18.013Z,96911.25
2022-12-09T12:01:29.143Z,96910.97
2022-12-09T12:03:40.497Z,96912.50
2022-12-09T12:05:47.585Z,96907.13
2022-12-09T12:08:02.126Z,96898.56
2022-12-09T12:10:15.949Z,96900.22
2022-12-09T12:12:26.720Z,96883.81
2022-12-09T12:14:33.052Z,96889.47
2022-12-09T12:16:49.025Z,96888.22
2022-12-09T12:19:01.958Z,96874.31
2022-12-09T12:21:22.693Z,96880.16
2022-12-09T12:23:38.890Z,96899.00
2022-12-09T12:25:54.215Z,96900.06
2022-12-09T12:28:15.805Z,96893.19
2022-12-09T12:30:24.369Z,96890.31
2022-12-09T12:32:40.407Z,96883.84
2022-12-09T12:35:02.548Z,96870.13
2022-12-09T12:37:25.878Z,96865.78
2022-12-09T12:39:47.204Z,96859.16
2022-12-09T12:41:58.775Z,96855.63
2022-12-09T12:44:25.349Z,96850.34
2022-12-09T12:46:44.675Z,96846.53
2022-12-09T12:49:17.541Z,96849.81
2022-12-09T12:51:36.966Z,96844.94
2022-12-09T12:53:49.967Z,96844.78
2022-12-09T12:56:02.532Z,96843.91
2022-12-09T12:58:13.919Z,96847.44
2022-12-09T13:00:24.110Z,96838.19
2022-12-09T13:02:41.834Z,96841.28
2022-12-09T13:04:54.582Z,96837.63
2022-12-09T13:07:08.806Z,96835.88
2022-12-09T13:09:18.848Z,96828.41
2022-12-09T13:11:26.712Z,96819.25
2022-12-09T13:13:37.653Z,96818.56
2022-12-09T13:15:48.793Z,96822.38
2022-12-09T13:17:54.547Z,96813.41
2022-12-09T13:20:04.041Z,96821.63
2022-12-09T13:22:24.485Z,96808.13
2022-12-09T13:24:38.068Z,96807.13
2022-12-09T13:26:51.097Z,96810.84
2022-12-09T13:29:02.542Z,96805.72
2022-12-09T13:31:11.356Z,96806.28
2022-12-09T13:33:31.708Z,96806.63
2022-12-09T13:35:43.772Z,96806.16
2022-12-09T13:38:02.440Z,96808.94
2022-12-09T13:40:30.837Z,96817.84
2022-12-09T13:42:56.703Z,96814.38
2022-12-09T13:45:08.298Z,96813.25
2022-12-09T13:47:27.630Z,96815.03
2022-12-09T13:49:32.505Z,96817.31
2022-12-09T13:51:48.453Z,96821.50
2022-12-09T13:54:07.094Z,96817.47
2022-12-09T13:56:21.679Z,96825.09
2022-12-09T13:58:46.949Z,96831.31
2022-12-09T14:01:06.353Z,96837.84
2022-12-09T14:03:28.304Z,96829.09
2022-12-09T14:05:39.349Z,96837.56
2022-12-09T14:07:51.312Z,96850.63
2022-12-09T14:10:03.061Z,96849.03
2022-12-09T14:12:09.916Z,96845.50
2022-12-09T14:14:56.672Z,96840.25
2022-12-09T14:17:03.136Z,96834.38
2022-12-09T14:19:49.867Z,96835.88
2022-12-09T14:22:24.300Z,96838.75
2022-12-09T14:24:38.163Z,96833.59
2022-12-09T14:26:47.898Z,96835.34
2022-12-09T14:28:58.413Z,96840.53
2022-12-09T14:31:08.641Z,96840.53
2022-12-09T14:33:25.317Z,96845.63
2022-12-09T14:35:41.869Z,96849.28
2022-12-09T14:38:07.190Z,96856.91
2022-12-09T14:40:29.275Z,96857.84
2022-12-09T14:42:50.660Z,96870.00
2022-12-09T14:45:03.040Z,96867.47
2022-12-09T14:47:19.334Z,96876.22
2022-12-09T14:49:26.479Z,96874.84
2022-12-09T14:51:39.515Z,96872.50
2022-12-09T14:53:44.850Z,96871.88
2022-12-09T14:55:49.662Z,96870.81
2022-12-09T14:58:00.780Z,96875.09
2022-12-09T15:00:08.795Z,96876.91
2022-12-09T15:02:23.155Z,96870.72
2022-12-09T15:04:33.310Z,96879.53
2022-12-09T15:06:38.156Z,96873.19
2022-12-09T15:08:44.343Z,96869.63
2022-12-09T15:10:49.120Z,96869.69
2022-12-09T15:12:58.934Z,96874.56
2022-12-09T15:15:09.379Z,96871.81
2022-12-09T15:17:23.453Z,96866.66
2022-12-09T15:19:59.151Z,96874.56
2022-12-09T15:22:00.656Z,96875.56
2022-12-09T15:24:06.384Z,96872.28
2022-12-09T15:26:24.701Z,96874.06
2022-12-09T15:28:35.121Z,96879.16
2022-12-09T15:30:40.948Z,96880.25
2022-12-09T15:32:47.811Z,96872.50
2022-12-09T15:34:53.202Z,96882.22
2022-12-09T15:37:00.642Z,96875.31
2022-12-09T15:39:09.603Z,96872.66
2022-12-09T15:41:26.898Z,96876.28
2022-12-09T15:43:37.288Z,96883.16
2022-12-09T15:45:46.364Z,96883.13
2022-12-09T15:47:54.564Z,96874.56
2022-12-09T15:50:08.403Z,96876.25
2022-12-09T15:52:14.686Z,96885.03
2022-12-09T15:54:27.276Z,96888.44
2022-12-09T15:56:38.450Z,96898.69
2022-12-09T15:58:51.028Z,96890.09
2022-12-09T16:01:00.036Z,96893.41
2022-12-09T16:03:04.864Z,96890.75
2022-12-09T16:05:12.735Z,96894.03
2022-12-09T16:07:22.221Z,96902.53
2022-12-09T16:09:27.076Z,96900.91
2022-12-09T16:11:39.856Z,96905.13
2022-12-09T16:14:05.513Z,96906.94
2022-12-09T16:16:26.940Z,96910.53
2022-12-09T16:18:36.300Z,96912.59
2022-12-09T16:20:45.519Z,96909.94
2022-12-09T16:22:52.411Z,96910.84
2022-12-09T16:25:14.512Z,96914.41
2022-12-09T16:27:24.689Z,96908.59
2022-12-09T16:29:36.353Z,96901.66
2022-12-09T16:31:41.263Z,96906.41
2022-12-09T16:33:50.868Z,96913.16
2022-12-09T16:36:02.354Z,96907.84
2022-12-09T16:38:19.226Z,96903.47
2022-12-09T16:40:53.908Z,96908.81
2022-12-09T16:43:22.592Z,96913.16
2022-12-09T16:45:37.963Z,96906.28
2022-12-09T16:47:42.876Z,96912.25
2022-12-09T16:49:49.777Z,96911.41
2022-12-09T16:51:54.609Z,96913.22
2022-12-09T16:54:02.871Z,96918.47
2022-12-09T16:56:08.076Z,96927.19
2022-12-09T16:58:15.715Z,96925.75
2022-12-09T17:00:21.433Z,96920.75
2022-12-09T17:02:35.957Z,96924.19
2022-12-09T17:04:43.740Z,96926.78
2022-12-09T17:07:04.027Z,96923.50
2022-12-09T17:09:08.982Z,96930.19
2022-12-09T17:11:16.938Z,96935.16
2022-12-09T17:13:21.824Z,96939.31
2022-12-09T17:15:29.634Z,96937.63
2022-12-09T17:17:37.085Z,96940.16
2022-12-09T17:19:44.251Z,96941.00
2022-12-09T17:21:49.257Z,96952.91
2022-12-09T17:24:03.373Z,96946.84
2022-12-09T17:26:11.038Z,96945.19
2022-12-09T17:28:15.874Z,96948.84
2022-12-09T17:30:20.819Z,96957.44
2022-12-09T17:32:26.548Z,96952.22
2022-12-09T17:34:34.169Z,96945.63
2022-12-09T17:36:39.053Z,96954.16
2022-12-09T17:38:44.643Z,96960.03
2022-12-09T17:40:49.837Z,96968.25
2022-12-09T17:42:54.378Z,96960.59
2022-12-09T17:45:01.024Z,96971.00
2022-12-09T17:47:05.790Z,96979.47
2022-12-09T17:49:10.573Z,96973.44
2022-12-09T17:51:19.283Z,96970.09
2022-12-09T17:53:24.083Z,96972.34
2022-12-09T17:55:29.179Z,96976.66
2022-12-09T17:57:33.897Z,96979.19
2022-12-09T17:59:38.901Z,96979.31
2022-12-09T18:01:44.055Z,96984.59
2022-12-09T18:03:57.880Z,96987.03
2022-12-09T18:06:05.180Z,96979.28
2022-12-09T18:08:12.719Z,96987.28
2022-12-09T18:10:18.062Z,97003.69
2022-12-09T18:12:23.133Z,96990.84
2022-12-09T18:14:28.846Z,96996.91
2022-12-09T18:16:34.064Z,96994.38
2022-12-09T18:18:38.982Z,96996.09
2022-12-09T18:20:43.804Z,96993.66
2022-12-09T18:22:48.835Z,97004.09
2022-12-09T18:24:56.672Z,97003.28
2022-12-09T18:27:01.521Z,97002.41
2022-12-09T18:29:06.403Z,97006.19
2022-12-09T18:31:13.150Z,97006.22
2022-12-09T18:33:18.032Z,97004.84
2022-12-09T18:35:22.830Z,97007.31
2022-12-09T18:37:27.718Z,97010.78
2022-12-09T18:39:32.615Z,97017.50
2022-12-09T18:41:39.998Z,97020.00
2022-12-09T18:43:46.869Z,97019.28
2022-12-09T18:45:51.765Z,97010.78
2022-12-09T18:47:57.043Z,96997.13
2022-12-09T18:50:01.870Z,97002.31
2022-12-09T18:52:06.850Z,97001.84
2022-12-09T18:54:13.478Z,97006.88
2022-12-09T18:56:19.741Z,97010.53
2022-12-09T18:58:49.542Z,97019.22
2022-12-09T19:00:52.216Z,97018.31
2022-12-09T19:02:57.142Z,97021.81
2022-12-09T19:05:02.040Z,97014.09
2022-12-09T19:07:06.986Z,97008.91
2022-12-09T19:09:14.490Z,97018.59
2022-12-09T19:11:19.626Z,97020.13
2022-12-09T19:13:26.993Z,97024.38
2022-12-09T19:15:31.942Z,97027.66
2022-12-09T19:17:37.128Z,97031.88
2022-12-09T19:19:42.027Z,97031.91
2022-12-09T19:21:47.673Z,97029.31
2022-12-09T19:23:53.182Z,97035.38
2022-12-09T19:25:57.916Z,97031.91
2022-12-09T19:28:02.684Z,97034.44
2022-12-09T19:30:11.267Z,97029.25
2022-12-09T19:32:51.047Z,97036.94
2022-12-09T19:34:41.440Z,97036.94
2022-12-09T19:36:47.824Z,97041.13
2022-12-09T19:38:52.724Z,97046.47
2022-12-09T19:41:00.087Z,97045.81
2022-12-09T19:43:04.904Z,97043.31
2022-12-09T19:45:14.463Z,97044.28
2022-12-09T19:47:19.589Z,97052.00
2022-12-09T19:49:25.997Z,97047.56
2022-12-09T19:51:30.993Z,97048.34
2022-12-09T19:53:35.898Z,97054.25
2022-12-09T19:55:41.286Z,97045.72
2022-12-09T19:57:46.067Z,97056.97
2022-12-09T19:59:50.853Z,97053.63
2022-12-09T20:01:58.541Z,97050.34
2022-12-09T20:04:25.255Z,97063.25
2022-12-09T20:06:30.761Z,97067.44
2022-12-09T20:08:35.410Z,97064.00
2022-12-09T20:10:46.221Z,97058.88
2022-12-09T20:12:51.149Z,97063.97
2022-12-09T20:14:55.949Z,97054.56
2022-12-09T20:17:04.371Z,97056.38
2022-12-09T20:19:09.247Z,97058.09
2022-12-09T20:21:16.157Z,97055.78
2022-12-09T20:23:20.968Z,97053.16
2022-12-09T20:25:25.739Z,97057.44
2022-12-09T20:27:30.576Z,97053.91
2022-12-09T20:29:38.039Z,97058.97
2022-12-09T20:31:45.842Z,97063.25
2022-12-09T20:33:55.638Z,97058.09
2022-12-09T20:36:06.412Z,97058.25
2022-12-09T20:38:11.156Z,97063.34
2022-12-09T20:40:16.025Z,97071.22
2022-12-09T20:42:20.805Z,97071.19
2022-12-09T20:44:25.634Z,97073.72
2022-12-09T20:46:32.317Z,97076.22
2022-12-09T20:48:38.106Z,97071.94
2022-12-09T20:50:45.487Z,97080.50
2022-12-09T20:52:50.396Z,97072.00
2022-12-09T20:54:56.486Z,97075.47
2022-12-09T20:57:01.714Z,97078.06
2022-12-09T20:59:06.833Z,97075.56
2022-12-09T21:01:14.976Z,97078.19
2022-12-09T21:03:20.562Z,97077.41
2022-12-09T21:05:25.348Z,97076.59
2022-12-09T21:07:32.692Z,97083.38
2022-12-09T21:09:37.520Z,97089.38
2022-12-09T21:11:42.539Z,97097.09
2022-12-09T21:13:53.672Z,97093.78
2022-12-09T21:16:06.483Z,97096.34
2022-12-09T21:18:11.532Z,97099.97
2022-12-09T21:20:16.740Z,97101.91
2022-12-09T21:22:21.638Z,97112.25
2022-12-09T21:24:29.052Z,97107.13
2022-12-09T21:26:34.047Z,97112.16
2022-12-09T21:28:40.287Z,97112.94
2022-12-09T21:30:45.129Z,97106.97
2022-12-09T21:32:49.878Z,97112.03
2022-12-09T21:34:58.069Z,97105.81
2022-12-09T21:37:02.854Z,97103.91
2022-12-09T21:39:09.619Z,97090.16
2022-12-09T21:41:18.682Z,97096.75
2022-12-09T21:43:23.475Z,97096.72
2022-12-09T21:45:28.402Z,97092.28
2022-12-09T21:47:33.200Z,97092.28
2022-12-09T21:49:37.938Z,97097.31
2022-12-09T21:51:43.036Z,97101.53
2022-12-09T21:53:48.201Z,97106.09
2022-12-09T21:55:57.506Z,97109.00
2022-12-09T21:58:05.352Z,97103.88
2022-12-09T22:00:13.636Z,97112.69
2022-12-09T22:02:18.514Z,97116.34
2022-12-09T22:04:23.866Z,97104.69
2022-12-09T22:06:29.520Z,97109.63
2022-12-09T22:08:34.452Z,97118.03
2022-12-09T22:10:39.863Z,97104.34
2022-12-09T22:12:44.661Z,97095.91
2022-12-09T22:14:55.686Z,97081.78
2022-12-09T22:17:01.103Z,97092.06
2022-12-09T22:19:09.042Z,97108.63
2022-12-09T22:21:24.850Z,97106.66
2022-12-09T22:23:30.636Z,97119.38
2022-12-09T22:25:35.440Z,97119.25
2022-12-09T22:27:41.425Z,97121.75
2022-12-09T22:29:46.268Z,97121.81
2022-12-09T22:31:53.665Z,97124.97
2022-12-09T22:34:02.604Z,97130.03
2022-12-09T22:36:08.205Z,97130.84
2022-12-09T22:38:14.714Z,97130.88
2022-12-09T22:40:20.484Z,97133.41
2022-12-09T22:42:25.528Z,97130.06
2022-12-09T22:44:30.374Z,97135.19
2022-12-09T22:46:36.784Z,97132.47
2022-12-09T22:48:44.641Z,97137.53
2022-12-09T22:50:49.447Z,97140.06
2022-12-09T22:52:54.335Z,97143.38
2022-12-09T22:54:59.088Z,97137.22
2022-12-09T22:57:03.840Z,97134.53
2022-12-09T22:59:09.203Z,97134.44
2022-12-09T23:01:14.909Z,97139.78
2022-12-09T23:03:19.839Z,97134.78
2022-12-09T23:05:33.225Z,97131.34
2022-12-09T23:07:40.297Z,97130.34
2022-12-09T23:09:45.435Z,97119.97
2022-12-09T23:11:51.629Z,97118.22
2022-12-09T23:13:57.123Z,97119.06
2022-12-09T23:16:03.645Z,97115.59
2022-12-09T23:18:08.909Z,97118.94
2022-12-09T23:20:14.806Z,97127.66
2022-12-09T23:22:22.200Z,97130.50
2022-12-09T23:24:27.024Z,97139.31
2022-12-09T23:26:33.905Z,97138.50
2022-12-09T23:28:39.884Z,97133.34
2022-12-09T23:30:44.753Z,97130.66
2022-12-09T23:32:50.003Z,97126.34
2022-12-09T23:34:54.809Z,97134.00
2022-12-09T23:36:59.710Z,97134.81
2022-12-09T23:39:11.103Z,97137.34
2022-12-09T23:41:17.400Z,97142.41
2022-12-09T23:43:22.211Z,97139.78
2022-12-09T23:45:27.040Z,97138.88
2022-12-09T23:47:31.795Z,97132.03
2022-12-09T23:49:36.949Z,97143.16
2022-12-09T23:51:44.146Z,97139.78
2022-12-09T23:53:50.534Z,97144.91
2022-12-09T23:55:58.095Z,97140.78
2022-12-09T23:58:02.932Z,97146.88
